createdAt,value
2023-04-26T00:00:19.000Z,79.12
2023-04-26T00:01:20.000Z,78.92
2023-04-26T00:02:19.000Z,78.93
2023-04-26T00:03:19.000Z,79.26
2023-04-26T00:04:19.000Z,79.33
2023-04-26T00:05:20.000Z,79.31
2023-04-26T00:06:19.000Z,79.24
2023-04-26T00:07:23.000Z,79.09
2023-04-26T00:08:19.000Z,78.98
2023-04-26T00:09:19.000Z,78.87
2023-04-26T00:10:19.000Z,78.63
2023-04-26T00:11:19.000Z,78.63
2023-04-26T00:12:20.000Z,78.61
2023-04-26T00:13:19.000Z,78.76
2023-04-26T00:14:20.000Z,78.84
2023-04-26T00:15:19.000Z,78.74
2023-04-26T00:16:19.000Z,78.90
2023-04-26T00:17:19.000Z,78.75
2023-04-26T00:18:19.000Z,78.58
2023-04-26T00:19:20.000Z,78.55
2023-04-26T00:20:19.000Z,78.50
2023-04-26T00:21:19.000Z,78.53
2023-04-26T00:22:19.000Z,78.48
2023-04-26T00:23:19.000Z,78.03
2023-04-26T00:24:20.000Z,78.42
2023-04-26T00:25:20.000Z,78.34
2023-04-26T00:26:20.000Z,78.36
2023-04-26T00:27:20.000Z,78.27
2023-04-26T00:28:19.000Z,78.21
2023-04-26T00:29:20.000Z,78.16
2023-04-26T00:30:20.000Z,78.12
2023-04-26T00:31:19.000Z,78.08
2023-04-26T00:32:19.000Z,78.05
2023-04-26T00:33:25.000Z,78.08
2023-04-26T00:34:19.000Z,78.13
2023-04-26T00:35:20.000Z,77.99
2023-04-26T00:36:19.000Z,77.96
2023-04-26T00:37:20.000Z,78.08
2023-04-26T00:38:19.000Z,77.99
2023-04-26T00:39:21.000Z,78.37
2023-04-26T00:40:19.000Z,78.10
2023-04-26T00:41:19.000Z,78.12
2023-04-26T00:42:19.000Z,77.90
2023-04-26T00:43:19.000Z,78.09
2023-04-26T00:44:19.000Z,78.17
2023-04-26T00:45:19.000Z,78.15
2023-04-26T00:46:20.000Z,78.13
2023-04-26T00:47:19.000Z,78.13
2023-04-26T00:48:19.000Z,78.24
2023-04-26T00:49:23.000Z,78.32
2023-04-26T00:50:20.000Z,78.52
2023-04-26T00:51:19.000Z,78.46
2023-04-26T00:52:20.000Z,78.62
2023-04-26T00:53:20.000Z,78.76
2023-04-26T00:54:20.000Z,78.65
2023-04-26T00:55:21.000Z,78.76
2023-04-26T00:56:20.000Z,78.65
2023-04-26T00:57:20.000Z,78.60
2023-04-26T00:58:19.000Z,78.85
2023-04-26T00:59:19.000Z,78.99
2023-04-26T01:00:20.000Z,78.65
2023-04-26T01:01:20.000Z,78.81
2023-04-26T01:02:21.000Z,78.67
2023-04-26T01:03:19.000Z,78.70
2023-04-26T01:04:19.000Z,79.29
2023-04-26T01:05:19.000Z,79.48
2023-04-26T01:06:19.000Z,79.37
2023-04-26T01:07:19.000Z,79.48
2023-04-26T01:08:22.000Z,79.15
2023-04-26T01:09:20.000Z,79.06
2023-04-26T01:10:19.000Z,79.20
2023-04-26T01:11:21.000Z,79.61
2023-04-26T01:12:21.000Z,79.64
2023-04-26T01:13:20.000Z,79.67
2023-04-26T01:14:21.000Z,79.14
2023-04-26T01:15:19.000Z,79.53
2023-04-26T01:16:20.000Z,79.65
2023-04-26T01:17:19.000Z,79.84
2023-04-26T01:18:19.000Z,79.69
2023-04-26T01:19:20.000Z,79.82
2023-04-26T01:20:20.000Z,79.79
2023-04-26T01:21:24.000Z,79.62
2023-04-26T01:22:20.000Z,79.62
2023-04-26T01:23:19.000Z,79.45
2023-04-26T01:24:20.000Z,79.78
2023-04-26T01:25:20.000Z,79.80
2023-04-26T01:26:20.000Z,79.77
2023-04-26T01:27:19.000Z,79.65
2023-04-26T01:28:19.000Z,79.17
2023-04-26T01:29:21.000Z,79.30
2023-04-26T01:30:19.000Z,79.25
2023-04-26T01:31:20.000Z,79.21
2023-04-26T01:32:19.000Z,79.04
2023-04-26T01:33:19.000Z,78.83
2023-04-26T01:34:19.000Z,78.96
2023-04-26T01:35:20.000Z,78.72
2023-04-26T01:36:19.000Z,78.74
2023-04-26T01:37:19.000Z,78.80
2023-04-26T01:38:19.000Z,78.90
2023-04-26T01:39:19.000Z,78.85
2023-04-26T01:40:20.000Z,78.75
2023-04-26T01:41:19.000Z,78.72
2023-04-26T01:42:19.000Z,78.62
2023-04-26T01:43:21.000Z,78.91
2023-04-26T01:44:19.000Z,78.71
2023-04-26T01:45:19.000Z,78.88
2023-04-26T01:46:19.000Z,78.79
2023-04-26T01:47:19.000Z,78.72
2023-04-26T01:48:19.000Z,78.70
2023-04-26T01:49:18.000Z,78.94
2023-04-26T01:50:18.000Z,78.76
2023-04-26T01:51:19.000Z,78.85
2023-04-26T01:52:20.000Z,78.65
2023-04-26T01:53:19.000Z,78.97
2023-04-26T01:54:19.000Z,78.86
2023-04-26T01:55:18.000Z,78.78
2023-04-26T01:56:18.000Z,78.63
2023-04-26T01:57:19.000Z,78.67
2023-04-26T01:58:19.000Z,78.63
2023-04-26T01:59:18.000Z,78.88
2023-04-26T02:00:18.000Z,79.01
2023-04-26T02:01:19.000Z,78.97
2023-04-26T02:02:19.000Z,79.10
2023-04-26T02:03:19.000Z,79.03
2023-04-26T02:04:18.000Z,79.09
2023-04-26T02:05:19.000Z,78.97
2023-04-26T02:06:19.000Z,79.03
2023-04-26T02:07:18.000Z,79.00
2023-04-26T02:08:18.000Z,79.00
2023-04-26T02:09:18.000Z,79.07
2023-04-26T02:10:18.000Z,79.02
2023-04-26T02:11:19.000Z,79.06
2023-04-26T02:12:18.000Z,79.08
2023-04-26T02:13:18.000Z,79.08
2023-04-26T02:14:18.000Z,79.09
2023-04-26T02:15:19.000Z,78.99
2023-04-26T02:16:19.000Z,78.94
2023-04-26T02:17:19.000Z,78.97
2023-04-26T02:18:21.000Z,78.88
2023-04-26T02:19:19.000Z,78.91
2023-04-26T02:20:19.000Z,78.93
2023-04-26T02:21:19.000Z,78.88
2023-04-26T02:22:22.000Z,78.65
2023-04-26T02:23:19.000Z,78.95
2023-04-26T02:24:20.000Z,78.75
2023-04-26T02:25:19.000Z,78.78
2023-04-26T02:26:19.000Z,78.91
2023-04-26T02:27:19.000Z,78.96
2023-04-26T02:28:19.000Z,78.99
2023-04-26T02:29:19.000Z,79.01
2023-04-26T02:30:19.000Z,78.91
2023-04-26T02:31:19.000Z,79.08
2023-04-26T02:32:19.000Z,79.19
2023-04-26T02:33:19.000Z,79.14
2023-04-26T02:34:19.000Z,79.20
2023-04-26T02:35:19.000Z,79.17
2023-04-26T02:36:19.000Z,79.05
2023-04-26T02:37:20.000Z,79.02
2023-04-26T02:38:19.000Z,79.00
2023-04-26T02:39:19.000Z,78.86
2023-04-26T02:40:19.000Z,78.82
2023-04-26T02:41:19.000Z,78.90
2023-04-26T02:42:19.000Z,79.04
2023-04-26T02:43:19.000Z,79.00
2023-04-26T02:44:19.000Z,78.86
2023-04-26T02:45:19.000Z,78.57
2023-04-26T02:46:19.000Z,78.67
2023-04-26T02:47:19.000Z,78.66
2023-04-26T02:48:19.000Z,78.62
2023-04-26T02:49:18.000Z,78.55
2023-04-26T02:50:19.000Z,78.53
2023-04-26T02:51:18.000Z,78.55
2023-04-26T02:52:18.000Z,78.59
2023-04-26T02:53:19.000Z,78.67
2023-04-26T02:54:18.000Z,78.80
2023-04-26T02:55:18.000Z,78.76
2023-04-26T02:56:18.000Z,78.76
2023-04-26T02:57:18.000Z,78.85
2023-04-26T02:58:19.000Z,78.76
2023-04-26T02:59:18.000Z,78.85
2023-04-26T03:00:19.000Z,78.88
2023-04-26T03:01:19.000Z,78.86
2023-04-26T03:02:19.000Z,78.96
2023-04-26T03:03:18.000Z,78.82
2023-04-26T03:04:18.000Z,78.75
2023-04-26T03:05:19.000Z,78.82
2023-04-26T03:06:18.000Z,78.77
2023-04-26T03:07:18.000Z,78.74
2023-04-26T03:08:19.000Z,78.49
2023-04-26T03:09:18.000Z,78.78
2023-04-26T03:10:19.000Z,78.59
2023-04-26T03:11:18.000Z,78.87
2023-04-26T03:12:18.000Z,78.81
2023-04-26T03:13:21.000Z,78.82
2023-04-26T03:14:18.000Z,78.70
2023-04-26T03:15:18.000Z,78.68
2023-04-26T03:16:21.000Z,78.72
2023-04-26T03:17:19.000Z,78.99
2023-04-26T03:18:18.000Z,79.09
2023-04-26T03:19:18.000Z,78.68
2023-04-26T03:20:19.000Z,78.78
2023-04-26T03:21:18.000Z,78.96
2023-04-26T03:22:19.000Z,78.79
2023-04-26T03:23:22.000Z,78.88
2023-04-26T03:24:18.000Z,78.75
2023-04-26T03:25:18.000Z,78.68
2023-04-26T03:26:19.000Z,78.86
2023-04-26T03:27:18.000Z,78.92
2023-04-26T03:28:19.000Z,79.08
2023-04-26T03:29:18.000Z,78.99
2023-04-26T03:30:19.000Z,78.97
2023-04-26T03:31:20.000Z,79.00
2023-04-26T03:32:18.000Z,79.24
2023-04-26T03:33:18.000Z,79.30
2023-04-26T03:34:19.000Z,78.90
2023-04-26T03:35:19.000Z,79.09
2023-04-26T03:36:19.000Z,79.06
2023-04-26T03:37:19.000Z,79.51
2023-04-26T03:38:19.000Z,79.71
2023-04-26T03:39:19.000Z,79.15
2023-04-26T03:40:18.000Z,79.09
2023-04-26T03:41:19.000Z,79.31
2023-04-26T03:42:19.000Z,79.52
2023-04-26T03:43:18.000Z,79.40
2023-04-26T03:44:19.000Z,79.22
2023-04-26T03:45:19.000Z,79.28
2023-04-26T03:46:18.000Z,79.25
2023-04-26T03:47:18.000Z,79.33
2023-04-26T03:48:18.000Z,79.34
2023-04-26T03:49:19.000Z,79.34
2023-04-26T03:50:19.000Z,79.19
2023-04-26T03:51:19.000Z,79.22
2023-04-26T03:52:19.000Z,79.15
2023-04-26T03:53:19.000Z,79.13
2023-04-26T03:54:19.000Z,79.08
2023-04-26T03:55:19.000Z,79.21
2023-04-26T03:56:19.000Z,79.18
2023-04-26T03:57:19.000Z,79.57
2023-04-26T03:58:19.000Z,79.54
2023-04-26T03:59:19.000Z,79.54
2023-04-26T04:00:19.000Z,79.46
2023-04-26T04:01:19.000Z,79.41
2023-04-26T04:02:19.000Z,79.67
2023-04-26T04:03:20.000Z,79.69
2023-04-26T04:04:19.000Z,79.48
2023-04-26T04:05:19.000Z,79.45
2023-04-26T04:06:19.000Z,79.45
2023-04-26T04:07:20.000Z,79.73
2023-04-26T04:08:19.000Z,79.80
2023-04-26T04:09:19.000Z,79.90
2023-04-26T04:10:21.000Z,79.66
2023-04-26T04:11:20.000Z,79.45
2023-04-26T04:12:19.000Z,79.40
2023-04-26T04:13:19.000Z,79.67
2023-04-26T04:14:19.000Z,80.11
2023-04-26T04:15:19.000Z,80.03
2023-04-26T04:16:19.000Z,79.84
2023-04-26T04:17:19.000Z,79.60
2023-04-26T04:18:19.000Z,79.68
2023-04-26T04:19:19.000Z,79.61
2023-04-26T04:20:20.000Z,79.60
2023-04-26T04:21:19.000Z,79.65
2023-04-26T04:22:19.000Z,79.74
2023-04-26T04:23:19.000Z,79.96
2023-04-26T04:24:18.000Z,80.06
2023-04-26T04:25:20.000Z,80.21
2023-04-26T04:26:19.000Z,79.99
2023-04-26T04:27:19.000Z,80.04
2023-04-26T04:28:21.000Z,80.00
2023-04-26T04:29:19.000Z,79.78
2023-04-26T04:30:19.000Z,79.89
2023-04-26T04:31:19.000Z,80.36
2023-04-26T04:32:19.000Z,80.41
2023-04-26T04:33:19.000Z,80.38
2023-04-26T04:34:18.000Z,80.36
2023-04-26T04:35:21.000Z,80.05
2023-04-26T04:36:19.000Z,79.98
2023-04-26T04:37:19.000Z,80.79
2023-04-26T04:38:19.000Z,81.45
2023-04-26T04:39:19.000Z,81.67
2023-04-26T04:40:18.000Z,81.66
2023-04-26T04:41:20.000Z,81.67
2023-04-26T04:42:18.000Z,81.10
2023-04-26T04:43:19.000Z,80.69
2023-04-26T04:44:19.000Z,80.51
2023-04-26T04:45:19.000Z,80.35
2023-04-26T04:46:19.000Z,80.31
2023-04-26T04:47:18.000Z,80.28
2023-04-26T04:48:19.000Z,80.26
2023-04-26T04:49:19.000Z,80.18
2023-04-26T04:50:19.000Z,80.14
2023-04-26T04:51:19.000Z,80.32
2023-04-26T04:52:21.000Z,80.17
2023-04-26T04:53:19.000Z,80.20
2023-04-26T04:54:19.000Z,80.30
2023-04-26T04:55:19.000Z,80.19
2023-04-26T04:56:20.000Z,80.11
2023-04-26T04:57:19.000Z,80.11
2023-04-26T04:58:21.000Z,80.13
2023-04-26T04:59:19.000Z,80.04
2023-04-26T05:00:19.000Z,80.03
2023-04-26T05:01:19.000Z,80.04
2023-04-26T05:02:19.000Z,80.09
2023-04-26T05:03:19.000Z,80.08
2023-04-26T05:04:19.000Z,80.81
2023-04-26T05:05:19.000Z,80.42
2023-04-26T05:06:19.000Z,80.35
2023-04-26T05:07:19.000Z,80.47
2023-04-26T05:08:19.000Z,80.52
2023-04-26T05:09:19.000Z,80.55
2023-04-26T05:10:19.000Z,81.04
2023-04-26T05:11:20.000Z,81.10
2023-04-26T05:12:19.000Z,80.71
2023-04-26T05:13:19.000Z,80.51
2023-04-26T05:14:19.000Z,80.45
2023-04-26T05:15:19.000Z,80.46
2023-04-26T05:16:19.000Z,80.42
2023-04-26T05:17:19.000Z,80.66
2023-04-26T05:18:19.000Z,80.45
2023-04-26T05:19:19.000Z,80.49
2023-04-26T05:20:19.000Z,80.32
2023-04-26T05:21:20.000Z,80.47
2023-04-26T05:22:20.000Z,80.51
2023-04-26T05:23:18.000Z,80.69
2023-04-26T05:24:18.000Z,80.33
2023-04-26T05:25:18.000Z,80.39
2023-04-26T05:26:18.000Z,80.23
2023-04-26T05:27:18.000Z,80.24
2023-04-26T05:28:18.000Z,80.37
2023-04-26T05:29:18.000Z,80.74
2023-04-26T05:30:18.000Z,80.38
2023-04-26T05:31:20.000Z,80.53
2023-04-26T05:32:19.000Z,80.55
2023-04-26T05:33:18.000Z,80.53
2023-04-26T05:34:18.000Z,80.52
2023-04-26T05:35:18.000Z,80.56
2023-04-26T05:36:19.000Z,80.53
2023-04-26T05:37:18.000Z,80.45
2023-04-26T05:38:19.000Z,80.31
2023-04-26T05:39:19.000Z,80.29
2023-04-26T05:40:18.000Z,80.27
2023-04-26T05:41:18.000Z,80.45
2023-04-26T05:42:18.000Z,80.38
2023-04-26T05:43:18.000Z,80.23
2023-04-26T05:44:18.000Z,80.20
2023-04-26T05:45:18.000Z,80.28
2023-04-26T05:46:18.000Z,80.26
2023-04-26T05:47:18.000Z,80.29
2023-04-26T05:48:19.000Z,80.33
2023-04-26T05:49:18.000Z,80.31
2023-04-26T05:50:19.000Z,80.51
2023-04-26T05:51:19.000Z,80.83
2023-04-26T05:52:18.000Z,80.63
2023-04-26T05:53:19.000Z,81.01
2023-04-26T05:54:18.000Z,80.63
2023-04-26T05:55:19.000Z,80.42
2023-04-26T05:56:19.000Z,80.74
2023-04-26T05:57:19.000Z,81.03
2023-04-26T05:58:19.000Z,80.71
2023-04-26T05:59:19.000Z,80.77
2023-04-26T06:00:21.000Z,80.55
2023-04-26T06:01:18.000Z,80.51
2023-04-26T06:02:19.000Z,80.31
2023-04-26T06:03:18.000Z,80.39
2023-04-26T06:04:19.000Z,80.25
2023-04-26T06:05:19.000Z,80.19
2023-04-26T06:06:19.000Z,80.11
2023-04-26T06:07:19.000Z,80.62
2023-04-26T06:08:19.000Z,80.45
2023-04-26T06:09:18.000Z,80.41
2023-04-26T06:10:19.000Z,80.30
2023-04-26T06:11:19.000Z,80.27
2023-04-26T06:12:19.000Z,80.33
2023-04-26T06:13:18.000Z,80.30
2023-04-26T06:14:19.000Z,80.19
2023-04-26T06:15:18.000Z,79.85
2023-04-26T06:16:21.000Z,79.74
2023-04-26T06:17:19.000Z,79.84
2023-04-26T06:18:19.000Z,80.00
2023-04-26T06:19:18.000Z,80.02
2023-04-26T06:20:19.000Z,79.91
2023-04-26T06:21:18.000Z,79.74
2023-04-26T06:22:18.000Z,79.85
2023-04-26T06:23:19.000Z,80.05
2023-04-26T06:24:19.000Z,80.16
2023-04-26T06:25:19.000Z,80.14
2023-04-26T06:26:19.000Z,80.20
2023-04-26T06:27:19.000Z,80.17
2023-04-26T06:28:19.000Z,80.38
2023-04-26T06:29:19.000Z,80.27
2023-04-26T06:30:18.000Z,80.18
2023-04-26T06:31:20.000Z,80.01
2023-04-26T06:32:18.000Z,79.83
2023-04-26T06:33:19.000Z,79.64
2023-04-26T06:34:18.000Z,79.07
2023-04-26T06:35:18.000Z,78.72
2023-04-26T06:36:18.000Z,78.86
2023-04-26T06:37:19.000Z,78.94
2023-04-26T06:38:19.000Z,79.10
2023-04-26T06:39:19.000Z,78.79
2023-04-26T06:40:19.000Z,78.62
2023-04-26T06:41:20.000Z,78.38
2023-04-26T06:42:19.000Z,78.17
2023-04-26T06:43:19.000Z,78.34
2023-04-26T06:44:20.000Z,79.65
2023-04-26T06:45:19.000Z,79.63
2023-04-26T06:46:19.000Z,77.83
2023-04-26T06:47:18.000Z,77.20
2023-04-26T06:48:19.000Z,77.72
2023-04-26T06:49:18.000Z,78.02
2023-04-26T06:50:19.000Z,78.20
2023-04-26T06:51:19.000Z,78.30
2023-04-26T06:52:18.000Z,78.39
2023-04-26T06:53:19.000Z,78.30
2023-04-26T06:54:19.000Z,78.37
2023-04-26T06:55:19.000Z,78.13
2023-04-26T06:56:19.000Z,76.96
2023-04-26T06:57:18.000Z,74.74
2023-04-26T06:58:19.000Z,75.24
2023-04-26T06:59:18.000Z,75.49
2023-04-26T07:00:19.000Z,75.91
2023-04-26T07:01:19.000Z,76.24
2023-04-26T07:02:19.000Z,76.46
2023-04-26T07:03:19.000Z,76.43
2023-04-26T07:04:19.000Z,76.31
2023-04-26T07:05:19.000Z,75.01
2023-04-26T07:06:19.000Z,75.58
2023-04-26T07:07:19.000Z,75.54
2023-04-26T07:08:19.000Z,74.23
2023-04-26T07:09:18.000Z,74.25
2023-04-26T07:10:19.000Z,74.08
2023-04-26T07:11:19.000Z,74.46
2023-04-26T07:12:19.000Z,74.30
2023-04-26T07:13:19.000Z,74.78
2023-04-26T07:14:19.000Z,74.13
2023-04-26T07:15:19.000Z,73.94
2023-04-26T07:16:19.000Z,74.32
2023-04-26T07:17:20.000Z,74.53
2023-04-26T07:18:18.000Z,75.19
2023-04-26T07:19:18.000Z,74.95
2023-04-26T07:20:21.000Z,74.98
2023-04-26T07:21:19.000Z,75.52
2023-04-26T07:22:19.000Z,75.34
2023-04-26T07:23:18.000Z,75.31
2023-04-26T07:24:18.000Z,73.45
2023-04-26T07:25:19.000Z,74.41
2023-04-26T07:26:19.000Z,75.20
2023-04-26T07:27:19.000Z,74.71
2023-04-26T07:28:19.000Z,73.62
2023-04-26T07:29:19.000Z,70.77
2023-04-26T07:30:19.000Z,70.52
2023-04-26T07:31:19.000Z,71.42
2023-04-26T07:32:19.000Z,71.92
2023-04-26T07:33:19.000Z,71.47
2023-04-26T07:34:18.000Z,71.43
2023-04-26T07:35:20.000Z,70.63
2023-04-26T07:36:19.000Z,69.81
2023-04-26T07:37:19.000Z,68.98
2023-04-26T07:38:18.000Z,69.14
2023-04-26T07:39:19.000Z,70.22
2023-04-26T07:40:21.000Z,71.32
2023-04-26T07:41:19.000Z,70.27
2023-04-26T07:42:19.000Z,71.31
2023-04-26T07:43:19.000Z,72.31
2023-04-26T07:44:19.000Z,71.18
2023-04-26T07:45:19.000Z,70.15
2023-04-26T07:46:19.000Z,71.26
2023-04-26T07:47:19.000Z,72.05
2023-04-26T07:48:18.000Z,72.23
2023-04-26T07:49:18.000Z,72.22
2023-04-26T07:50:19.000Z,71.46
2023-04-26T07:51:19.000Z,70.06
2023-04-26T07:52:19.000Z,68.97
2023-04-26T07:53:19.000Z,70.32
2023-04-26T07:54:19.000Z,69.93
2023-04-26T07:55:19.000Z,69.89
2023-04-26T07:56:19.000Z,69.79
2023-04-26T07:57:19.000Z,70.27
2023-04-26T07:58:20.000Z,69.36
2023-04-26T07:59:18.000Z,69.18
2023-04-26T08:00:21.000Z,68.96
2023-04-26T08:01:18.000Z,68.91
2023-04-26T08:02:18.000Z,69.04
2023-04-26T08:03:19.000Z,70.27
2023-04-26T08:04:29.000Z,71.11
2023-04-26T08:05:19.000Z,69.08
2023-04-26T08:06:18.000Z,68.85
2023-04-26T08:07:19.000Z,67.35
2023-04-26T08:08:19.000Z,68.91
2023-04-26T08:09:19.000Z,69.11
2023-04-26T08:10:19.000Z,69.36
2023-04-26T08:11:18.000Z,68.98
2023-04-26T08:12:18.000Z,69.58
2023-04-26T08:13:20.000Z,68.98
2023-04-26T08:14:18.000Z,69.22
2023-04-26T08:15:19.000Z,69.15
2023-04-26T08:16:19.000Z,67.14
2023-04-26T08:17:18.000Z,66.24
2023-04-26T08:18:18.000Z,64.43
2023-04-26T08:19:20.000Z,65.27
2023-04-26T08:20:19.000Z,66.20
2023-04-26T08:21:18.000Z,66.34
2023-04-26T08:22:18.000Z,65.31
2023-04-26T08:23:19.000Z,65.52
2023-04-26T08:24:19.000Z,64.22
2023-04-26T08:25:19.000Z,63.68
2023-04-26T08:26:19.000Z,65.64
2023-04-26T08:27:19.000Z,65.04
2023-04-26T08:28:19.000Z,65.68
2023-04-26T08:29:21.000Z,64.35
2023-04-26T08:30:19.000Z,63.98
2023-04-26T08:31:19.000Z,63.60
2023-04-26T08:32:18.000Z,63.28
2023-04-26T08:33:19.000Z,63.06
2023-04-26T08:34:18.000Z,59.41
2023-04-26T08:35:20.000Z,58.12
2023-04-26T08:36:19.000Z,59.69
2023-04-26T08:37:19.000Z,59.90
2023-04-26T08:38:21.000Z,61.62
2023-04-26T08:39:19.000Z,59.85
2023-04-26T08:40:22.000Z,61.04
2023-04-26T08:41:21.000Z,61.57
2023-04-26T08:42:21.000Z,62.34
2023-04-26T08:43:19.000Z,62.29
2023-04-26T08:44:22.000Z,61.67
2023-04-26T08:45:20.000Z,62.34
2023-04-26T08:46:20.000Z,59.75
2023-04-26T08:47:28.000Z,61.05
2023-04-26T08:48:19.000Z,60.87
2023-04-26T08:49:34.000Z,61.13
2023-04-26T08:50:21.000Z,61.19
2023-04-26T08:51:19.000Z,60.59
2023-04-26T08:52:22.000Z,61.10
2023-04-26T08:53:18.000Z,61.57
2023-04-26T08:54:19.000Z,61.90
2023-04-26T08:55:21.000Z,60.95
2023-04-26T08:56:22.000Z,59.67
2023-04-26T08:57:20.000Z,59.20
2023-04-26T08:58:19.000Z,59.20
2023-04-26T08:59:20.000Z,59.35
2023-04-26T09:00:19.000Z,59.63
2023-04-26T09:01:19.000Z,57.35
2023-04-26T09:02:20.000Z,58.45
2023-04-26T09:03:22.000Z,59.35
2023-04-26T09:04:19.000Z,57.11
2023-04-26T09:05:24.000Z,57.57
2023-04-26T09:06:19.000Z,58.17
2023-04-26T09:07:30.000Z,57.13
2023-04-26T09:08:19.000Z,57.55
2023-04-26T09:09:21.000Z,57.38
2023-04-26T09:10:20.000Z,57.12
2023-04-26T09:11:19.000Z,56.79
2023-04-26T09:12:19.000Z,55.78
2023-04-26T09:13:18.000Z,56.89
2023-04-26T09:14:19.000Z,57.29
2023-04-26T09:15:20.000Z,56.65
2023-04-26T09:16:19.000Z,54.71
2023-04-26T09:17:24.000Z,57.03
2023-04-26T09:18:21.000Z,53.97
2023-04-26T09:19:29.000Z,55.43
2023-04-26T09:20:35.000Z,55.18
2023-04-26T09:21:19.000Z,56.31
2023-04-26T09:22:29.000Z,56.34
2023-04-26T09:23:19.000Z,55.80
2023-04-26T09:24:19.000Z,54.22
2023-04-26T09:25:27.000Z,54.49
2023-04-26T09:26:20.000Z,54.83
2023-04-26T09:27:19.000Z,56.46
2023-04-26T09:28:21.000Z,57.23
2023-04-26T09:29:19.000Z,56.18
2023-04-26T09:30:20.000Z,54.48
2023-04-26T09:31:29.000Z,54.35
2023-04-26T09:32:19.000Z,55.59
2023-04-26T09:33:19.000Z,54.35
2023-04-26T09:34:19.000Z,52.34
2023-04-26T09:35:38.000Z,52.23
2023-04-26T09:36:19.000Z,52.64
2023-04-26T09:37:19.000Z,52.01
2023-04-26T09:38:19.000Z,52.31
2023-04-26T09:39:29.000Z,53.24
2023-04-26T09:40:20.000Z,52.30
2023-04-26T09:41:19.000Z,53.87
2023-04-26T09:42:19.000Z,54.39
2023-04-26T09:43:20.000Z,53.59
2023-04-26T09:44:20.000Z,54.08
2023-04-26T09:45:19.000Z,53.51
2023-04-26T09:46:21.000Z,52.36
2023-04-26T09:47:20.000Z,54.25
2023-04-26T09:48:22.000Z,53.64
2023-04-26T09:49:19.000Z,52.76
2023-04-26T09:50:25.000Z,54.25
2023-04-26T09:51:19.000Z,53.82
2023-04-26T09:52:19.000Z,54.17
2023-04-26T09:53:34.000Z,53.74
2023-04-26T09:54:41.000Z,53.27
2023-04-26T09:55:29.000Z,53.96
2023-04-26T09:56:19.000Z,54.38
2023-04-26T09:57:20.000Z,53.07
2023-04-26T09:58:19.000Z,52.08
2023-04-26T09:59:18.000Z,52.00
2023-04-26T10:00:20.000Z,52.42
2023-04-26T10:01:19.000Z,52.89
2023-04-26T10:02:23.000Z,53.30
2023-04-26T10:03:21.000Z,53.83
2023-04-26T10:04:19.000Z,53.58
2023-04-26T10:05:19.000Z,53.90
2023-04-26T10:06:19.000Z,54.46
2023-04-26T10:07:23.000Z,54.24
2023-04-26T10:08:19.000Z,53.97
2023-04-26T10:09:19.000Z,54.16
2023-04-26T10:10:19.000Z,53.82
2023-04-26T10:11:20.000Z,54.46
2023-04-26T10:12:19.000Z,54.00
2023-04-26T10:13:19.000Z,55.14
2023-04-26T10:14:19.000Z,54.45
2023-04-26T10:15:19.000Z,53.95
2023-04-26T10:16:19.000Z,54.26
2023-04-26T10:17:20.000Z,55.00
2023-04-26T10:18:19.000Z,53.63
2023-04-26T10:19:20.000Z,54.56
2023-04-26T10:20:20.000Z,54.51
2023-04-26T10:21:27.000Z,54.91
2023-04-26T10:22:38.000Z,54.35
2023-04-26T10:23:22.000Z,54.12
2023-04-26T10:24:21.000Z,54.37
2023-04-26T10:25:19.000Z,55.18
2023-04-26T10:26:29.000Z,54.49
2023-04-26T10:27:39.000Z,54.66
2023-04-26T10:28:29.000Z,53.45
2023-04-26T10:29:19.000Z,53.37
2023-04-26T10:30:20.000Z,53.13
2023-04-26T10:31:19.000Z,53.95
2023-04-26T10:32:22.000Z,52.33
2023-04-26T10:33:19.000Z,53.51
2023-04-26T10:34:20.000Z,51.83
2023-04-26T10:35:20.000Z,50.19
2023-04-26T10:36:20.000Z,50.55
2023-04-26T10:37:19.000Z,50.81
2023-04-26T10:38:19.000Z,51.37
2023-04-26T10:39:22.000Z,51.38
2023-04-26T10:40:27.000Z,51.92
2023-04-26T10:41:37.000Z,50.56
2023-04-26T10:42:28.000Z,51.69
2023-04-26T10:43:27.000Z,52.01
2023-04-26T10:44:29.000Z,51.75
2023-04-26T10:45:25.000Z,51.02
2023-04-26T10:46:35.000Z,50.10
2023-04-26T10:47:21.000Z,51.32
2023-04-26T10:48:28.000Z,51.33
2023-04-26T10:49:21.000Z,50.71
2023-04-26T10:50:19.000Z,49.87
2023-04-26T10:51:19.000Z,51.42
2023-04-26T10:52:19.000Z,50.85
2023-04-26T10:53:19.000Z,50.04
2023-04-26T10:54:19.000Z,50.75
2023-04-26T10:55:29.000Z,52.12
2023-04-26T10:56:39.000Z,51.64
2023-04-26T10:57:20.000Z,50.10
2023-04-26T10:58:24.000Z,49.70
2023-04-26T10:59:19.000Z,50.30
2023-04-26T11:00:25.000Z,49.86
2023-04-26T11:01:19.000Z,50.79
2023-04-26T11:02:38.000Z,51.08
2023-04-26T11:03:21.000Z,50.98
2023-04-26T11:04:18.000Z,50.04
2023-04-26T11:05:28.000Z,50.68
2023-04-26T11:06:22.000Z,49.73
2023-04-26T11:07:28.000Z,50.88
2023-04-26T11:08:35.000Z,50.43
2023-04-26T11:09:28.000Z,50.36
2023-04-26T11:10:21.000Z,49.99
2023-04-26T11:11:24.000Z,50.44
2023-04-26T11:12:20.000Z,49.84
2023-04-26T11:13:19.000Z,49.50
2023-04-26T11:14:20.000Z,49.01
2023-04-26T11:15:19.000Z,49.82
2023-04-26T11:16:18.000Z,48.77
2023-04-26T11:17:19.000Z,48.19
2023-04-26T11:18:20.000Z,49.29
2023-04-26T11:19:18.000Z,49.51
2023-04-26T11:20:18.000Z,48.95
2023-04-26T11:21:19.000Z,50.28
2023-04-26T11:22:20.000Z,50.42
2023-04-26T11:23:18.000Z,51.19
2023-04-26T11:24:24.000Z,50.52
2023-04-26T11:25:18.000Z,49.42
2023-04-26T11:26:18.000Z,49.63
2023-04-26T11:27:18.000Z,47.81
2023-04-26T11:28:19.000Z,47.44
2023-04-26T11:29:19.000Z,48.33
2023-04-26T11:30:19.000Z,48.18
2023-04-26T11:31:19.000Z,47.57
2023-04-26T11:32:18.000Z,48.36
2023-04-26T11:33:20.000Z,47.88
2023-04-26T11:34:20.000Z,47.13
2023-04-26T11:35:21.000Z,48.29
2023-04-26T11:36:20.000Z,48.29
2023-04-26T11:37:19.000Z,46.90
2023-04-26T11:38:22.000Z,48.31
2023-04-26T11:39:19.000Z,47.23
2023-04-26T11:40:19.000Z,46.69
2023-04-26T11:41:21.000Z,46.87
2023-04-26T11:42:23.000Z,46.63
2023-04-26T11:43:19.000Z,47.23
2023-04-26T11:44:19.000Z,46.58
2023-04-26T11:45:18.000Z,46.98
2023-04-26T11:46:20.000Z,46.62
2023-04-26T11:47:19.000Z,46.43
2023-04-26T11:48:19.000Z,44.88
2023-04-26T11:49:19.000Z,45.53
2023-04-26T11:50:20.000Z,45.57
2023-04-26T11:51:20.000Z,45.48
2023-04-26T11:52:19.000Z,45.04
2023-04-26T11:53:18.000Z,45.35
2023-04-26T11:54:29.000Z,45.00
2023-04-26T11:55:23.000Z,44.99
2023-04-26T11:56:20.000Z,44.83
2023-04-26T11:57:18.000Z,45.74
2023-04-26T11:58:19.000Z,45.84
2023-04-26T11:59:27.000Z,45.86
2023-04-26T12:00:19.000Z,44.82
2023-04-26T12:01:23.000Z,45.07
2023-04-26T12:02:22.000Z,44.15
2023-04-26T12:03:19.000Z,44.97
2023-04-26T12:04:26.000Z,44.16
2023-04-26T12:05:24.000Z,45.38
2023-04-26T12:06:19.000Z,43.59
2023-04-26T12:07:18.000Z,44.52
2023-04-26T12:08:22.000Z,42.77
2023-04-26T12:09:23.000Z,44.64
2023-04-26T12:10:22.000Z,44.09
2023-04-26T12:11:19.000Z,44.54
2023-04-26T12:12:22.000Z,43.49
2023-04-26T12:13:19.000Z,42.19
2023-04-26T12:14:18.000Z,42.61
2023-04-26T12:15:23.000Z,42.43
2023-04-26T12:16:20.000Z,43.40
2023-04-26T12:17:18.000Z,44.35
2023-04-26T12:18:19.000Z,42.84
2023-04-26T12:19:22.000Z,43.69
2023-04-26T12:20:25.000Z,44.29
2023-04-26T12:21:19.000Z,45.28
2023-04-26T12:22:19.000Z,45.22
2023-04-26T12:23:19.000Z,43.61
2023-04-26T12:24:23.000Z,44.57
2023-04-26T12:25:19.000Z,44.33
2023-04-26T12:26:19.000Z,42.62
2023-04-26T12:27:19.000Z,43.69
2023-04-26T12:28:19.000Z,43.70
2023-04-26T12:29:18.000Z,43.89
2023-04-26T12:30:19.000Z,43.78
2023-04-26T12:31:18.000Z,44.25
2023-04-26T12:32:18.000Z,45.12
2023-04-26T12:33:21.000Z,44.46
2023-04-26T12:34:19.000Z,44.65
2023-04-26T12:35:18.000Z,43.88
2023-04-26T12:36:18.000Z,44.51
2023-04-26T12:37:18.000Z,43.81
2023-04-26T12:38:18.000Z,44.28
2023-04-26T12:39:18.000Z,44.91
2023-04-26T12:40:19.000Z,43.86
2023-04-26T12:41:19.000Z,45.23
2023-04-26T12:42:18.000Z,45.22
2023-04-26T12:43:22.000Z,43.82
2023-04-26T12:44:18.000Z,43.83
2023-04-26T12:45:18.000Z,44.86
2023-04-26T12:46:18.000Z,44.40
2023-04-26T12:47:18.000Z,43.14
2023-04-26T12:48:18.000Z,43.18
2023-04-26T12:49:18.000Z,43.62
2023-04-26T12:50:18.000Z,43.76
2023-04-26T12:51:18.000Z,43.90
2023-04-26T12:52:18.000Z,44.11